Time;durP1;ratioP1;P1;durP2;ratioP2;P2;SDS_P1;SDS_P2;PMS_P1;PMS_P2;Temp;Humidity;BMP_temperature;BMP_pressure;BME280_temperature;BME280_humidity;BME280_pressure;Samples;Min_cycle;Max_cycle;Signal;HPM_P1;HPM_P2
2021/03/27 00:00:25;;;;;;;;;;;;;;;16.95;63.71;101896.16;5011908;28;1242;-56
2021/03/27 00:03:17;;;;;;;;;;;;;;;16.94;63.31;101888.22;5015122;28;1600;-57
2021/03/27 00:05:46;;;;;;;;;;;;;;;16.93;63.90;101892.72;5007674;28;1323;-56
2021/03/27 00:08:17;;;;;;;;;;;;;;;16.92;63.28;101888.31;5014396;28;893;-56
2021/03/27 00:10:49;;;;;;;;;;;;;;;16.89;64.68;101886.69;5013175;28;1918;-56
2021/03/27 00:13:17;;;;;;;;;;;;;;;16.90;64.50;101891.06;5014640;28;1645;-57
2021/03/27 00:15:57;;;;;;;;;;;;;;;16.87;63.74;101896.63;5012821;28;1352;-57
2021/03/27 00:18:45;;;;;;;;;;;;;;;16.87;63.43;101880.59;5013298;28;1498;-56
2021/03/27 00:21:19;;;;;;;;;;;;;;;16.84;63.67;101872.75;5020415;28;1383;-57
2021/03/27 00:23:57;;;;;;;;;;;;;;;16.82;63.50;101871.13;5015763;28;1538;-56
2021/03/27 00:26:33;;;;;;;;;;;;;;;16.83;64.25;101878.19;5021015;28;763;-56
2021/03/27 00:29:21;;;;;;;;;;;;;;;16.82;64.46;101865.78;5014113;28;1689;-56
2021/03/27 00:32:07;;;;;;;;;;;;;;;16.85;63.40;101881.63;5010835;28;1898;-56
2021/03/27 00:34:35;;;;;;;;;;;;;;;16.83;63.73;101872.84;5012531;28;1813;-56
2021/03/27 00:37:03;;;;;;;;;;;;;;;16.79;64.61;101877.50;5019353;28;1410;-57
2021/03/27 00:39:48;;;;;;;;;;;;;;;16.79;64.58;101872.16;5022653;28;1554;-57
2021/03/27 00:42:20;;;;;;;;;;;;;;;16.78;64.50;101881.09;5019334;28;1800;-56
2021/03/27 00:44:49;;;;;;;;;;;;;;;16.80;64.29;101878.34;5004978;28;1486;-56
2021/03/27 00:47:17;;;;;;;;;;;;;;;16.77;64.26;101871.41;5017722;28;1700;-56
2021/03/27 00:49:47;;;;;;;;;;;;;;;16.76;64.83;101883.00;5019055;28;1494;-56
2021/03/27 00:52:14;;;;;;;;;;;;;;;16.76;63.90;101871.47;5015811;28;1949;-57
2021/03/27 00:54:42;;;;;;;;;;;;;;;16.77;63.95;101870.50;5013084;28;1400;-56
2021/03/27 00:57:16;;;;;;;;;;;;;;;16.76;63.75;101866.13;5006320;28;1353;-56
2021/03/27 01:00:01;;;;;;;;;;;;;;;16.76;63.40;101876.81;5020895;28;1842;-56
2021/03/27 01:02:27;;;;;;;;;;;;;;;16.77;64.39;101875.84;5014490;28;1489;-56
2021/03/27 01:04:53;;;;;;;;;;;;;;;16.76;63.88;101868.81;5027281;28;1810;-56
2021/03/27 01:07:21;;;;;;;;;;;;;;;16.73;64.60;101859.16;5026263;28;1345;-57
2021/03/27 01:09:52;;;;;;;;;;;;;;;16.73;63.26;101866.31;5026522;28;1589;-56
2021/03/27 01:12:20;;;;;;;;;;;;;;;16.75;63.79;101864.41;5018779;28;1910;-56
2021/03/27 01:14:49;;;;;;;;;;;;;;;16.71;64.52;101874.41;5026633;28;1666;-57
2021/03/27 01:17:16;;;;;;;;;;;;;;;16.70;64.65;101865.53;5027421;28;1740;-57
2021/03/27 01:19:55;;;;;;;;;;;;;;;16.68;63.48;101867.44;5026118;28;1534;-56
2021/03/27 01:22:23;;;;;;;;;;;;;;;16.66;63.83;101866.69;5017652;28;1342;-57
2021/03/27 01:24:48;;;;;;;;;;;;;;;16.65;63.99;101864.09;5016891;28;1389;-56
2021/03/27 01:27:17;;;;;;;;;;;;;;;16.64;63.73;101863.25;5018482;28;782;-57
2021/03/27 01:29:42;;;;;;;;;;;;;;;16.66;64.85;101860.50;5021977;28;1536;-56
2021/03/27 01:32:07;;;;;;;;;;;;;;;16.67;63.70;101870.22;5030888;28;1952;-57
2021/03/27 01:34:42;;;;;;;;;;;;;;;16.66;64.29;101876.53;5019096;28;1538;-56
2021/03/27 01:37:07;;;;;;;;;;;;;;;16.65;64.89;101878.34;5017092;28;1566;-57
2021/03/27 01:39:43;;;;;;;;;;;;;;;16.64;64.20;101868.59;5015956;28;1358;-57
2021/03/27 01:42:24;;;;;;;;;;;;;;;16.61;64.92;101871.47;5015873;28;1592;-56
2021/03/27 01:45:08;;;;;;;;;;;;;;;16.62;64.66;101870.50;5017422;28;1690;-56
2021/03/27 01:47:37;;;;;;;;;;;;;;;16.58;63.75;101863.63;5028232;28;1689;-56
2021/03/27 01:50:05;;;;;;;;;;;;;;;16.60;64.13;101863.53;5016302;28;1523;-57
2021/03/27 01:52:49;;;;;;;;;;;;;;;16.57;64.07;101866.38;5022117;28;1949;-56
2021/03/27 01:55:20;;;;;;;;;;;;;;;16.58;64.29;101868.13;5024292;28;1689;-56
2021/03/27 01:57:55;;;;;;;;;;;;;;;16.56;65.15;101868.19;5019615;28;1371;-56
2021/03/27 02:00:41;;;;;;;;;;;;;;;16.56;65.07;101873.53;5024275;28;1592;-57
2021/03/27 02:03:28;;;;;;;;;;;;;;;16.56;65.00;101865.53;5025024;28;1910;-57
2021/03/27 02:06:04;;;;;;;;;;;;;;;16.55;65.01;101869.13;5021222;28;1716;-56
2021/03/27 02:08:35;;;;;;;;;;;;;;;16.56;64.40;101870.03;5022133;28;1330;-56
2021/03/27 02:11:06;;;;;;;;;;;;;;;16.55;64.52;101874.47;5018587;28;1973;-57
2021/03/27 02:13:42;;;;;;;;;;;;;;;16.59;63.99;101869.81;5015602;28;1493;-57
2021/03/27 02:16:07;;;;;;;;;;;;;;;16.56;64.02;101876.22;5007824;28;1533;-57
2021/03/27 02:18:36;;;;;;;;;;;;;;;16.52;63.94;101865.81;5015243;28;1534;-56
2021/03/27 02:21:15;;;;;;;;;;;;;;;16.52;64.66;101869.34;5017860;28;1546;-57
2021/03/27 02:23:59;;;;;;;;;;;;;;;16.53;64.78;101881.72;5015420;28;1390;-56
2021/03/27 02:26:25;;;;;;;;;;;;;;;16.50;63.98;101885.44;5025090;28;1660;-56
2021/03/27 02:28:56;;;;;;;;;;;;;;;16.52;63.58;101880.03;5025196;28;1504;-57
2021/03/27 02:31:31;;;;;;;;;;;;;;;16.53;63.66;101886.22;5018527;28;1943;-57
2021/03/27 02:34:07;;;;;;;;;;;;;;;16.50;64.62;101888.13;5023928;28;1591;-57
2021/03/27 02:36:58;;;;;;;;;;;;;;;16.52;64.18;101866.66;5011691;28;1409;-57
2021/03/27 02:39:33;;;;;;;;;;;;;;;16.50;63.37;101889.94;5011316;28;1410;-57
2021/03/27 02:42:01;;;;;;;;;;;;;;;16.47;63.44;101874.97;5021256;28;1584;-56
2021/03/27 02:44:34;;;;;;;;;;;;;;;16.47;63.83;101879.41;5024580;28;1771;-57
2021/03/27 02:47:22;;;;;;;;;;;;;;;16.47;64.87;101888.31;5017327;28;1605;-57
2021/03/27 02:50:06;;;;;;;;;;;;;;;16.46;63.38;101886.59;5025180;28;1597;-57
2021/03/27 02:52:36;;;;;;;;;;;;;;;16.44;63.48;101888.47;5010722;28;1890;-57
2021/03/27 02:55:24;;;;;;;;;;;;;;;16.43;63.65;101872.56;5018301;28;1562;-57
2021/03/27 02:57:54;;;;;;;;;;;;;;;16.44;63.77;101876.97;5015462;28;1626;-56
2021/03/27 03:02:55;;;;;;;;;;;;;;;16.43;64.72;101880.56;4965736;26;1808;-45
2021/03/27 03:05:22;;;;;;;;;;;;;;;16.42;64.80;101878.84;5001877;28;1567;-45
2021/03/27 03:07:51;;;;;;;;;;;;;;;16.38;63.57;101875.50;5003047;28;1617;-45
2021/03/27 03:10:19;;;;;;;;;;;;;;;16.39;63.55;101890.56;5022513;23;3762;-55
2021/03/27 03:12:45;;;;;;;;;;;;;;;16.37;64.77;101881.78;5032684;28;1910;-56
2021/03/27 03:15:10;;;;;;;;;;;;;;;16.40;64.08;101886.09;5034367;28;854;-56
2021/03/27 03:17:49;;;;;;;;;;;;;;;16.38;64.32;101885.34;5033400;28;1684;-56
2021/03/27 03:20:14;;;;;;;;;;;;;;;16.37;64.27;101891.59;5032760;28;1565;-56
2021/03/27 03:22:47;;;;;;;;;;;;;;;16.35;63.45;101886.34;5033392;28;1434;-55
2021/03/27 03:25:22;;;;;;;;;;;;;;;16.39;64.37;101895.03;5033199;28;1355;-56
2021/03/27 03:27:47;;;;;;;;;;;;;;;16.39;64.16;101887.03;5033430;28;1389;-55
2021/03/27 03:30:31;;;;;;;;;;;;;;;16.38;63.07;101902.19;5034222;28;759;-55
2021/03/27 03:32:56;;;;;;;;;;;;;;;16.40;63.69;101902.97;5033786;28;1951;-56
2021/03/27 03:35:24;;;;;;;;;;;;;;;16.42;64.36;101905.56;5032713;28;1482;-55
2021/03/27 03:38:09;;;;;;;;;;;;;;;16.37;63.68;101892.47;5033046;28;1764;-55
2021/03/27 03:40:47;;;;;;;;;;;;;;;16.37;63.03;101888.94;5033384;28;1714;-55
2021/03/27 03:43:12;;;;;;;;;;;;;;;16.37;63.89;101902.28;5031986;28;1676;-55
2021/03/27 03:45:40;;;;;;;;;;;;;;;16.37;64.24;101896.94;5033347;28;1537;-57
2021/03/27 03:48:13;;;;;;;;;;;;;;;16.36;63.64;101901.44;5032703;28;1298;-56
2021/03/27 03:50:59;;;;;;;;;;;;;;;16.35;63.93;101893.50;5033241;28;1382;-55
2021/03/27 03:53:40;;;;;;;;;;;;;;;16.35;63.94;101904.19;5032118;28;1713;-54
2021/03/27 03:56:09;;;;;;;;;;;;;;;16.31;64.17;101908.84;5033366;28;1121;-55
2021/03/27 03:58:40;;;;;;;;;;;;;;;16.35;64.21;101906.84;5032888;28;1544;-56
2021/03/27 04:01:16;;;;;;;;;;;;;;;16.38;63.80;101909.34;5032584;28;1565;-56
2021/03/27 04:03:41;;;;;;;;;;;;;;;16.36;63.58;101900.59;5032134;28;1200;-56
2021/03/27 04:06:18;;;;;;;;;;;;;;;16.40;64.52;101902.13;5032504;28;1330;-55
2021/03/27 04:08:43;;;;;;;;;;;;;;;16.37;65.37;101912.97;5029827;28;1541;-55
2021/03/27 04:11:29;;;;;;;;;;;;;;;16.38;63.88;101906.69;5032814;28;1913;-55
2021/03/27 04:13:55;;;;;;;;;;;;;;;16.35;64.81;101912.19;5032280;28;1886;-55
2021/03/27 04:16:22;;;;;;;;;;;;;;;16.34;65.28;101924.69;5032620;28;1481;-55
2021/03/27 04:18:53;;;;;;;;;;;;;;;16.32;64.98;101920.41;5023905;28;1581;-55
2021/03/27 04:21:22;;;;;;;;;;;;;;;16.30;64.43;101928.50;5032346;28;1406;-55
2021/03/27 04:23:59;;;;;;;;;;;;;;;16.29;64.74;101924.97;5032691;28;1596;-54
2021/03/27 04:26:28;;;;;;;;;;;;;;;16.29;63.85;101926.75;5030096;28;737;-55
2021/03/27 04:29:06;;;;;;;;;;;;;;;16.28;64.07;101941.91;5032284;28;1469;-55
2021/03/27 04:31:40;;;;;;;;;;;;;;;16.30;64.76;101936.50;5032150;28;1886;-55
2021/03/27 04:34:11;;;;;;;;;;;;;;;16.27;64.94;101942.88;5031825;28;1541;-55
2021/03/27 04:36:59;;;;;;;;;;;;;;;16.25;64.18;101928.78;5031318;28;1540;-56
2021/03/27 04:39:29;;;;;;;;;;;;;;;16.30;64.87;101940.00;5028709;28;1516;-55
2021/03/27 04:42:11;;;;;;;;;;;;;;;16.32;64.02;101939.94;5033162;28;833;-55
2021/03/27 04:44:44;;;;;;;;;;;;;;;16.32;63.38;101942.59;5031888;28;1664;-55
2021/03/27 04:47:17;;;;;;;;;;;;;;;16.32;63.82;101936.41;5032166;28;1271;-56
2021/03/27 04:49:52;;;;;;;;;;;;;;;16.33;64.18;101946.13;5030949;28;1557;-56
2021/03/27 04:52:26;;;;;;;;;;;;;;;16.35;64.00;101957.56;5032105;28;1893;-55
2021/03/27 04:54:58;;;;;;;;;;;;;;;16.31;63.82;101956.88;5031560;28;1394;-55
2021/03/27 04:57:36;;;;;;;;;;;;;;;16.32;63.81;101958.63;5032816;28;791;-56
2021/03/27 05:00:20;;;;;;;;;;;;;;;16.36;64.94;101964.66;5032102;28;1731;-55
2021/03/27 05:02:53;;;;;;;;;;;;;;;16.30;63.72;101971.19;5029726;28;1465;-56
2021/03/27 05:05:26;;;;;;;;;;;;;;;16.32;64.22;101979.97;5028541;28;1731;-55
2021/03/27 05:07:58;;;;;;;;;;;;;;;16.27;63.52;101964.25;5031773;28;1604;-55
2021/03/27 05:10:39;;;;;;;;;;;;;;;16.27;64.92;101977.59;5031040;28;1402;-55
2021/03/27 05:13:21;;;;;;;;;;;;;;;16.30;63.72;101982.72;5031906;28;1906;-55
2021/03/27 05:15:48;;;;;;;;;;;;;;;16.28;63.84;101979.28;5027983;28;1201;-55
2021/03/27 05:18:25;;;;;;;;;;;;;;;16.27;64.39;101971.34;5032209;28;1553;-55
2021/03/27 05:21:07;;;;;;;;;;;;;;;16.29;65.01;101985.47;5030924;28;1438;-55
2021/03/27 05:23:43;;;;;;;;;;;;;;;16.28;64.41;101989.97;5032199;28;1541;-56
2021/03/27 05:26:18;;;;;;;;;;;;;;;16.32;64.25;102003.16;5031703;28;1330;-55
2021/03/27 05:28:46;;;;;;;;;;;;;;;16.32;63.54;101989.81;5031920;28;1738;-56
2021/03/27 05:31:14;;;;;;;;;;;;;;;16.32;64.36;101997.81;5032090;28;1979;-55
2021/03/27 05:33:45;;;;;;;;;;;;;;;16.33;64.17;101991.50;5031521;28;1299;-56
2021/03/27 05:36:34;;;;;;;;;;;;;;;16.36;64.82;101996.69;5031365;28;1362;-55
2021/03/27 05:38:59;;;;;;;;;;;;;;;16.34;64.71;101993.25;5031413;28;1315;-55
2021/03/27 05:41:43;;;;;;;;;;;;;;;16.38;63.39;102003.66;5032218;28;1379;-56
2021/03/27 05:44:12;;;;;;;;;;;;;;;16.40;63.21;102003.56;5033380;28;1726;-55
2021/03/27 05:47:10;;;;;;;;;;;;;;;16.44;64.10;102005.09;5035338;28;1540;-55
2021/03/27 05:49:42;;;;;;;;;;;;;;;16.57;65.47;102000.75;5034929;28;1434;-54
2021/03/27 05:52:10;;;;;;;;;;;;;;;16.97;63.72;102001.13;5034795;28;1966;-55
2021/03/27 05:54:38;;;;;;;;;;;;;;;17.02;63.70;101995.50;5034828;28;1413;-55
2021/03/27 05:57:16;;;;;;;;;;;;;;;17.03;63.22;101989.19;5036110;28;785;-55
2021/03/27 06:00:02;;;;;;;;;;;;;;;17.13;63.00;101997.50;5033969;28;1209;-55
2021/03/27 06:02:36;;;;;;;;;;;;;;;17.26;63.38;101998.50;5032290;28;1668;-56
2021/03/27 06:05:17;;;;;;;;;;;;;;;17.16;63.00;101978.63;5034133;28;1604;-59
2021/03/27 06:08:01;;;;;;;;;;;;;;;17.27;62.79;101994.88;5033864;28;1516;-55
2021/03/27 06:11:05;;;;;;;;;;;;;;;17.27;63.27;101989.53;5031054;28;1735;-55
2021/03/27 06:13:37;;;;;;;;;;;;;;;17.33;63.98;101991.81;5002793;28;1417;-57
2021/03/27 06:16:21;;;;;;;;;;;;;;;17.29;64.23;101988.47;5001003;28;1257;-59
2021/03/27 06:19:05;;;;;;;;;;;;;;;17.29;64.61;101983.13;5025993;28;1302;-54
2021/03/27 06:21:39;;;;;;;;;;;;;;;17.32;63.87;102008.81;5029950;28;1489;-55
2021/03/27 06:24:09;;;;;;;;;;;;;;;17.37;64.50;101998.69;5034148;28;1211;-56
2021/03/27 06:26:47;;;;;;;;;;;;;;;17.42;63.95;101993.91;5034908;28;954;-56
2021/03/27 06:29:31;;;;;;;;;;;;;;;17.41;63.59;101997.56;5033938;28;1262;-54
2021/03/27 06:32:28;;;;;;;;;;;;;;;17.45;63.82;102004.44;5034071;28;1893;-54
2021/03/27 06:34:53;;;;;;;;;;;;;;;17.48;64.21;102004.22;5030069;28;1488;-57
2021/03/27 06:37:26;;;;;;;;;;;;;;;17.52;63.92;101994.19;5034270;28;1469;-56
2021/03/27 06:40:10;;;;;;;;;;;;;;;17.49;62.79;102005.97;5033946;28;1530;-56
2021/03/27 06:42:54;;;;;;;;;;;;;;;17.51;63.77;102003.19;5033829;28;1667;-56
2021/03/27 06:45:20;;;;;;;;;;;;;;;17.54;64.02;102019.03;5028376;28;1156;-58
2021/03/27 06:48:18;;;;;;;;;;;;;;;17.52;63.05;102001.38;5033269;28;1346;-58
2021/03/27 06:51:02;;;;;;;;;;;;;;;17.63;64.45;102010.44;5033033;28;1358;-57
2021/03/27 06:53:36;;;;;;;;;;;;;;;17.64;63.20;102008.63;5034235;28;1362;-63
2021/03/27 06:56:14;;;;;;;;;;;;;;;17.65;63.77;102019.22;5034103;28;1612;-65
2021/03/27 06:58:58;;;;;;;;;;;;;;;17.66;63.85;102018.25;5022194;28;1449;-63
2021/03/27 07:01:42;;;;;;;;;;;;;;;17.66;63.83;102015.59;5033419;28;1533;-58
2021/03/27 07:04:16;;;;;;;;;;;;;;;17.66;63.51;102012.91;5024542;28;1262;-58
2021/03/27 07:07:02;;;;;;;;;;;;;;;17.67;63.44;102006.63;5032341;28;1403;-59
2021/03/27 07:09:45;;;;;;;;;;;;;;;17.69;64.14;102018.09;5034689;28;1579;-57
2021/03/27 07:12:30;;;;;;;;;;;;;;;17.69;64.21;102023.44;5020066;28;1894;-60
2021/03/27 07:15:01;;;;;;;;;;;;;;;17.67;64.20;102011.97;5033662;28;1481;-58
2021/03/27 07:17:29;;;;;;;;;;;;;;;17.78;64.64;102021.13;5031861;28;1458;-56
2021/03/27 07:20:15;;;;;;;;;;;;;;;17.85;64.79;102012.66;5034483;28;1680;-61
2021/03/27 07:23:00;;;;;;;;;;;;;;;17.88;64.39;102017.78;5033654;28;1876;-60
2021/03/27 07:25:25;;;;;;;;;;;;;;;17.86;64.78;102014.34;5032886;28;1711;-57
2021/03/27 07:27:51;;;;;;;;;;;;;;;17.83;64.29;102009.22;5033604;28;1266;-58
2021/03/27 07:30:29;;;;;;;;;;;;;;;17.85;65.15;102012.66;5033568;28;1449;-57
2021/03/27 07:33:03;;;;;;;;;;;;;;;17.81;65.33;102013.78;5033804;28;1898;-58
2021/03/27 07:35:29;;;;;;;;;;;;;;;17.86;64.97;102032.25;5034666;28;989;-57
2021/03/27 07:37:54;;;;;;;;;;;;;;;17.82;64.95;102018.16;5031999;28;1326;-56
2021/03/27 07:40:32;;;;;;;;;;;;;;;17.81;64.83;102019.13;5033786;28;1388;-57
2021/03/27 07:42:58;;;;;;;;;;;;;;;17.81;65.43;102020.94;5032365;28;1442;-59
2021/03/27 07:45:41;;;;;;;;;;;;;;;17.80;64.70;102033.44;5033623;28;1417;-59
2021/03/27 07:48:25;;;;;;;;;;;;;;;17.84;65.72;102034.16;5032076;28;1335;-59
2021/03/27 07:50:57;;;;;;;;;;;;;;;17.92;64.91;102031.00;5031442;28;1389;-57
2021/03/27 07:53:22;;;;;;;;;;;;;;;17.88;63.94;102028.50;5032374;28;1947;-58
2021/03/27 07:56:06;;;;;;;;;;;;;;;17.92;63.42;102026.50;5031372;28;1298;-58
2021/03/27 07:58:51;;;;;;;;;;;;;;;17.88;64.09;102025.81;5032359;28;1382;-65
2021/03/27 08:01:29;;;;;;;;;;;;;;;17.87;64.45;102009.88;5032553;28;1579;-57
2021/03/27 08:04:06;;;;;;;;;;;;;;;17.89;64.53;102014.19;5031246;28;1467;-60
2021/03/27 08:06:47;;;;;;;;;;;;;;;17.95;64.16;102022.78;5017944;28;10915;-57
2021/03/27 08:09:17;;;;;;;;;;;;;;;17.91;64.44;102015.91;5033032;28;1449;-58
2021/03/27 08:11:54;;;;;;;;;;;;;;;17.96;64.98;102005.75;5027164;28;1906;-57
2021/03/27 08:14:36;;;;;;;;;;;;;;;17.91;64.56;102000.69;5031755;28;1687;-63
2021/03/27 08:17:15;;;;;;;;;;;;;;;17.88;65.02;102009.75;5032907;28;1152;-61
2021/03/27 08:19:58;;;;;;;;;;;;;;;17.88;64.98;102015.13;5032929;28;1279;-61
2021/03/27 08:22:27;;;;;;;;;;;;;;;17.94;64.94;102019.22;5038583;28;1275;-57
2021/03/27 08:25:01;;;;;;;;;;;;;;;17.91;65.25;102010.56;5028998;28;1552;-65
2021/03/27 08:27:42;;;;;;;;;;;;;;;17.91;65.18;102000.69;5032021;28;1462;-55
2021/03/27 08:30:23;;;;;;;;;;;;;;;17.93;64.59;102000.63;5032148;28;1241;-56
2021/03/27 08:33:07;;;;;;;;;;;;;;;17.92;64.35;101996.19;5049205;28;1890;-57
2021/03/27 08:35:45;;;;;;;;;;;;;;;17.87;63.60;101999.19;5044713;28;1334;-55
2021/03/27 08:38:23;;;;;;;;;;;;;;;17.91;63.42;101994.50;5031424;28;1359;-58
2021/03/27 08:41:01;;;;;;;;;;;;;;;17.87;63.54;101992.00;5032808;28;1017;-62
2021/03/27 08:43:26;;;;;;;;;;;;;;;17.72;63.30;101979.56;5030553;28;1507;-61
2021/03/27 08:45:52;;;;;;;;;;;;;;;17.85;62.80;101980.53;5032456;28;1418;-62
2021/03/27 08:48:23;;;;;;;;;;;;;;;17.88;63.82;102001.72;5032458;28;1472;-57
2021/03/27 08:50:51;;;;;;;;;;;;;;;17.85;63.13;102001.94;5031362;28;1339;-58
2021/03/27 08:53:23;;;;;;;;;;;;;;;17.88;63.88;101995.53;5021726;28;1882;-59
2021/03/27 08:55:51;;;;;;;;;;;;;;;17.86;63.29;102006.31;5033434;28;1347;-60
2021/03/27 08:58:37;;;;;;;;;;;;;;;17.83;63.97;101995.84;5047544;28;1389;-58
2021/03/27 09:01:21;;;;;;;;;;;;;;;17.84;64.63;101996.69;5028837;28;1829;-60
2021/03/27 09:03:52;;;;;;;;;;;;;;;17.84;64.58;101994.88;5029850;28;1184;-56
2021/03/27 09:06:35;;;;;;;;;;;;;;;17.87;65.34;101994.69;5031492;28;1176;-58
2021/03/27 09:09:14;;;;;;;;;;;;;;;17.92;64.70;102002.41;5032029;28;1414;-56
2021/03/27 09:12:03;;;;;;;;;;;;;;;17.86;65.52;101984.91;5030993;28;1995;-58
2021/03/27 09:14:49;;;;;;;;;;;;;;;17.87;65.36;102000.03;5031718;28;1287;-57
2021/03/27 09:17:32;;;;;;;;;;;;;;;17.93;64.93;101992.59;5030305;28;1407;-55
2021/03/27 09:20:08;;;;;;;;;;;;;;;17.84;65.84;101989.50;5030595;28;1707;-57
2021/03/27 09:22:46;;;;;;;;;;;;;;;17.82;65.27;101995.91;5034576;28;1387;-56
2021/03/27 09:25:20;;;;;;;;;;;;;;;17.80;65.65;101981.75;5034747;28;1419;-54
2021/03/27 09:28:15;;;;;;;;;;;;;;;17.71;65.45;101977.88;5035529;28;1406;-54
2021/03/27 09:30:51;;;;;;;;;;;;;;;17.75;65.38;101983.88;5037395;28;1254;-55
2021/03/27 09:33:35;;;;;;;;;;;;;;;17.71;64.83;101975.19;5031502;28;1894;-55
2021/03/27 09:36:09;;;;;;;;;;;;;;;17.69;65.79;101969.06;5031970;28;1354;-54
2021/03/27 09:38:42;;;;;;;;;;;;;;;17.69;65.41;101969.94;5033302;28;1404;-54
2021/03/27 09:41:13;;;;;;;;;;;;;;;17.69;65.37;101974.44;5036028;28;928;-59
2021/03/27 09:43:58;;;;;;;;;;;;;;;17.70;65.60;101973.44;5035380;28;1652;-63
2021/03/27 09:46:39;;;;;;;;;;;;;;;17.64;65.46;101966.66;5032795;28;1416;-63
2021/03/27 09:49:08;;;;;;;;;;;;;;;17.65;66.41;101957.72;5026360;28;1307;-61
2021/03/27 09:51:56;;;;;;;;;;;;;;;17.74;65.22;101961.59;5034733;28;1882;-61
2021/03/27 09:54:54;;;;;;;;;;;;;;;17.71;64.97;101959.13;5043303;28;1603;-59
2021/03/27 09:57:19;;;;;;;;;;;;;;;17.75;65.31;101955.31;5010301;28;1440;-56
2021/03/27 10:00:02;;;;;;;;;;;;;;;17.55;65.52;101900.41;5034619;28;1445;-60
2021/03/27 10:02:46;;;;;;;;;;;;;;;17.98;65.61;101972.56;5034663;28;1754;-55
2021/03/27 10:05:50;;;;;;;;;;;;;;;17.87;66.06;101949.19;5034753;28;1738;-55
2021/03/27 10:08:20;;;;;;;;;;;;;;;17.90;66.17;101945.44;5004874;28;1348;-57
2021/03/27 10:11:04;;;;;;;;;;;;;;;17.96;66.10;101944.19;5007967;28;1498;-55
2021/03/27 10:13:51;;;;;;;;;;;;;;;17.92;66.49;101948.03;5020843;28;1914;-54
2021/03/27 10:16:32;;;;;;;;;;;;;;;17.47;50.77;101926.78;5034539;28;1576;-59
2021/03/27 10:19:00;;;;;;;;;;;;;;;17.64;65.41;101936.41;5027046;28;1330;-57
2021/03/27 10:21:38;;;;;;;;;;;;;;;18.50;62.96;101930.78;5025676;28;1307;-56
2021/03/27 10:24:18;;;;;;;;;;;;;;;18.06;64.22;101930.13;5035139;28;1311;-65
2021/03/27 10:26:50;;;;;;;;;;;;;;;18.14;64.32;101926.91;5035933;28;1307;-67
2021/03/27 10:29:36;;;;;;;;;;;;;;;18.06;65.49;101940.84;5035132;28;1711;-70
2021/03/27 10:32:21;;;;;;;;;;;;;;;17.90;65.71;101924.03;5032748;28;1894;-69
2021/03/27 10:34:49;;;;;;;;;;;;;;;17.90;64.34;101929.38;5034283;28;1682;-57
2021/03/27 10:37:33;;;;;;;;;;;;;;;17.97;64.90;101930.72;5033376;28;1331;-63
2021/03/27 10:40:17;;;;;;;;;;;;;;;17.99;65.83;101928.81;5035218;28;1397;-62
2021/03/27 10:42:49;;;;;;;;;;;;;;;18.08;65.90;101930.00;5032147;28;1334;-57
2021/03/27 10:45:20;;;;;;;;;;;;;;;18.05;66.44;101941.78;5035469;28;1326;-69
2021/03/27 10:47:50;;;;;;;;;;;;;;;17.96;65.02;101925.47;5034847;28;1283;-63
2021/03/27 10:50:15;;;;;;;;;;;;;;;17.87;64.77;101919.75;5028679;28;1621;-63
2021/03/27 10:52:59;;;;;;;;;;;;;;;17.86;65.77;101923.38;5034381;28;1949;-60
2021/03/27 10:55:40;;;;;;;;;;;;;;;17.85;66.08;101920.81;5028891;28;1438;-60
2021/03/27 10:58:17;;;;;;;;;;;;;;;17.91;65.78;101911.53;5034612;28;1386;-61
2021/03/27 11:00:45;;;;;;;;;;;;;;;17.93;65.17;101906.94;5034109;28;1495;-70
2021/03/27 11:03:30;;;;;;;;;;;;;;;17.99;64.81;101902.03;5033678;28;1375;-62
2021/03/27 11:05:55;;;;;;;;;;;;;;;18.01;65.72;101905.47;5030364;28;1434;-69
2021/03/27 11:08:27;;;;;;;;;;;;;;;17.97;65.20;101909.31;5032426;28;1367;-68
2021/03/27 11:10:55;;;;;;;;;;;;;;;17.91;62.61;101906.19;5034230;28;1366;-67
2021/03/27 11:13:38;;;;;;;;;;;;;;;17.81;64.29;101901.41;5034541;28;1909;-68
2021/03/27 11:16:07;;;;;;;;;;;;;;;17.82;63.17;101903.09;5033911;28;1350;-57
2021/03/27 11:18:32;;;;;;;;;;;;;;;17.95;61.86;101894.31;5049331;28;1417;-57
2021/03/27 11:21:06;;;;;;;;;;;;;;;17.93;61.85;101898.91;5051385;28;1455;-58
2021/03/27 11:23:49;;;;;;;;;;;;;;;17.99;61.87;101879.78;5033851;28;1402;-66
2021/03/27 11:26:18;;;;;;;;;;;;;;;17.87;62.29;101890.31;5030529;28;1299;-66
2021/03/27 11:28:46;;;;;;;;;;;;;;;17.78;62.92;101877.50;5032698;28;1504;-65
2021/03/27 11:31:12;;;;;;;;;;;;;;;17.70;63.56;101888.69;5033332;28;1957;-57
2021/03/27 11:33:50;;;;;;;;;;;;;;;17.73;62.86;101889.50;5037137;28;1623;-65
2021/03/27 11:36:23;;;;;;;;;;;;;;;17.65;63.05;101871.25;5032842;28;1608;-65
2021/03/27 11:38:55;;;;;;;;;;;;;;;17.65;62.56;101876.59;5034268;28;1597;-57
2021/03/27 11:41:23;;;;;;;;;;;;;;;17.65;63.34;101888.16;5034658;28;848;-57
2021/03/27 11:44:07;;;;;;;;;;;;;;;17.65;62.95;101882.81;5042447;28;1691;-57
2021/03/27 11:46:35;;;;;;;;;;;;;;;17.65;63.94;101879.28;5033758;28;1381;-65
2021/03/27 11:49:04;;;;;;;;;;;;;;;17.61;63.83;101861.72;5034487;28;1341;-57
2021/03/27 11:51:44;;;;;;;;;;;;;;;17.63;63.54;101882.03;5034757;28;1890;-57
2021/03/27 11:54:28;;;;;;;;;;;;;;;17.62;63.28;101879.47;5026515;28;1377;-64
2021/03/27 11:57:02;;;;;;;;;;;;;;;17.60;63.38;101876.88;5033195;28;797;-56
2021/03/27 11:59:42;;;;;;;;;;;;;;;17.62;63.26;101871.44;5034667;28;1804;-66
2021/03/27 12:02:17;;;;;;;;;;;;;;;17.61;63.92;101872.41;5034510;28;1495;-57
2021/03/27 12:04:51;;;;;;;;;;;;;;;17.57;63.40;101863.72;5033900;28;1389;-66
2021/03/27 12:07:33;;;;;;;;;;;;;;;17.58;63.72;101870.78;5034273;28;1195;-57
2021/03/27 12:09:58;;;;;;;;;;;;;;;17.60;63.54;101865.34;5034447;28;1620;-66
2021/03/27 12:12:26;;;;;;;;;;;;;;;17.56;63.41;101862.00;5034943;28;1993;-57
2021/03/27 12:14:54;;;;;;;;;;;;;;;17.58;63.79;101861.91;5033780;28;1603;-66
2021/03/27 12:17:29;;;;;;;;;;;;;;;17.56;64.00;101859.31;5034370;28;1814;-66
2021/03/27 12:20:13;;;;;;;;;;;;;;;17.57;63.76;101879.78;5030854;28;1681;-57
2021/03/27 12:22:43;;;;;;;;;;;;;;;17.56;63.79;101858.47;5030975;28;1432;-57
2021/03/27 12:25:08;;;;;;;;;;;;;;;17.57;64.26;101857.53;5033978;28;1353;-66
2021/03/27 12:27:33;;;;;;;;;;;;;;;17.58;64.58;101860.06;5034840;28;846;-57
2021/03/27 12:29:58;;;;;;;;;;;;;;;17.58;64.23;101860.06;5033708;28;1404;-66
2021/03/27 12:32:43;;;;;;;;;;;;;;;17.58;63.71;101851.19;5034225;28;1902;-66
2021/03/27 12:35:17;;;;;;;;;;;;;;;17.60;63.91;101862.66;5032242;28;1713;-57
2021/03/27 12:37:52;;;;;;;;;;;;;;;17.57;64.02;101850.34;5034092;28;1684;-66
2021/03/27 12:40:23;;;;;;;;;;;;;;;17.54;63.73;101858.56;5031173;28;1703;-57
2021/03/27 12:42:58;;;;;;;;;;;;;;;17.57;63.52;101847.69;5034045;28;1592;-66
2021/03/27 12:45:34;;;;;;;;;;;;;;;17.58;63.67;101851.19;5032528;28;1245;-66
2021/03/27 12:48:00;;;;;;;;;;;;;;;17.60;64.51;101851.97;5032522;28;1561;-57
2021/03/27 12:50:54;;;;;;;;;;;;;;;17.56;63.33;101845.09;5034112;28;1198;-66
2021/03/27 12:53:20;;;;;;;;;;;;;;;17.58;64.66;101843.19;4996198;28;1886;-57
2021/03/27 12:56:04;;;;;;;;;;;;;;;17.53;63.87;101843.47;5043572;28;1739;-66
2021/03/27 12:58:39;;;;;;;;;;;;;;;17.55;63.73;101843.34;5022345;28;1546;-57
2021/03/27 13:01:15;;;;;;;;;;;;;;;17.56;64.56;101847.78;5034676;28;1676;-66
2021/03/27 13:03:56;;;;;;;;;;;;;;;17.54;64.40;101839.84;5034377;28;1303;-66
2021/03/27 13:06:37;;;;;;;;;;;;;;;17.55;63.68;101835.34;5033465;28;1564;-57
2021/03/27 13:09:05;;;;;;;;;;;;;;;17.55;64.43;101840.69;5032823;28;1449;-66
2021/03/27 13:11:42;;;;;;;;;;;;;;;17.54;63.65;101831.81;5038121;28;1910;-57
2021/03/27 13:14:26;;;;;;;;;;;;;;;17.50;64.81;101817.78;5037586;28;1732;-66
2021/03/27 13:16:54;;;;;;;;;;;;;;;17.48;64.38;101838.41;5037738;28;1604;-57
2021/03/27 13:19:26;;;;;;;;;;;;;;;17.45;64.17;101833.28;5037425;28;1358;-66
2021/03/27 13:22:10;;;;;;;;;;;;;;;17.47;63.93;101836.72;5038438;28;779;-57
2021/03/27 13:24:35;;;;;;;;;;;;;;;17.43;64.74;101820.97;5035694;28;1459;-57
2021/03/27 13:27:09;;;;;;;;;;;;;;;17.41;64.61;101828.25;5037493;28;1783;-57
2021/03/27 13:29:40;;;;;;;;;;;;;;;17.39;64.52;101819.44;5036199;28;1394;-66
2021/03/27 13:32:17;;;;;;;;;;;;;;;17.44;64.77;101828.03;5037581;28;1893;-57